Time;durP1;ratioP1;P1;durP2;ratioP2;P2;SDS_P1;SDS_P2;PMS_P1;PMS_P2;Temp;Humidity;BMP_temperature;BMP_pressure;BME280_temperature;BME280_humidity;BME280_pressure;Samples;Min_cycle;Max_cycle;Signal;HPM_P1;HPM_P2
2021/05/12 00:00:20;;;;;;;;;17.00;17.00;;;;;13.02;78.19;98870.38;3582978;40;14063;-52
2021/05/12 00:02:48;;;;;;;;;21.50;20.75;;;;;13.20;77.28;98870.66;3588688;40;14024;-52
2021/05/12 00:05:17;;;;;;;;;21.00;16.50;;;;;12.69;79.75;98868.66;3584437;40;14035;-54
2021/05/12 00:07:46;;;;;;;;;21.25;18.75;;;;;13.02;78.55;98866.81;3579604;40;14069;-56
2021/05/12 00:10:15;;;;;;;;;22.75;18.50;;;;;13.04;78.54;98867.56;3580805;40;14093;-54
2021/05/12 00:12:43;;;;;;;;;32.75;22.00;;;;;13.22;78.34;98857.91;3579223;40;14579;-50
2021/05/12 00:15:15;;;;;;;;;25.50;17.50;;;;;13.20;78.33;98867.09;3589030;40;14108;-53
2021/05/12 00:17:44;;;;;;;;;21.50;17.50;;;;;13.16;77.69;98871.88;3584684;40;13993;-54
2021/05/12 00:20:16;;;;;;;;;34.00;27.25;;;;;13.18;78.87;98869.91;3580912;40;14121;-56
2021/05/12 00:25:14;;;;;;;;;33.75;29.25;;;;;13.43;77.25;98862.44;3583692;40;14025;-52
2021/05/12 00:27:42;;;;;;;;;53.67;41.00;;;;;12.87;79.41;98864.41;3583438;40;14226;-52
2021/05/12 00:30:17;;;;;;;;;32.00;28.75;;;;;12.63;80.35;98866.47;3579787;40;10691;-50
2021/05/12 00:32:45;;;;;;;;;44.67;35.67;;;;;12.16;82.46;98860.47;3582634;40;14167;-53
2021/05/12 00:35:14;;;;;;;;;37.00;29.75;;;;;12.60;81.66;98864.06;3581450;40;10778;-53
2021/05/12 00:37:42;;;;;;;;;28.33;26.00;;;;;12.07;82.80;98857.56;3581910;40;14141;-53
2021/05/12 00:40:13;;;;;;;;;26.25;24.75;;;;;12.06;82.67;98863.09;3582333;40;10812;-56
2021/05/12 00:42:41;;;;;;;;;22.00;20.50;;;;;11.60;82.55;98859.50;3577781;40;10649;-53
2021/05/12 00:45:14;;;;;;;;;20.00;16.50;;;;;11.29;83.16;98860.19;3580327;40;14247;-53
2021/05/12 00:47:42;;;;;;;;;21.50;18.75;;;;;11.20;83.80;98862.63;3580698;40;14051;-55
2021/05/12 00:50:10;;;;;;;;;23.00;22.33;;;;;11.28;84.25;98855.81;3580528;40;14056;-53
2021/05/12 00:52:38;;;;;;;;;24.50;20.00;;;;;11.64;82.76;98854.75;3580986;40;11344;-55
2021/05/12 00:55:06;;;;;;;;;23.50;21.00;;;;;12.05;80.52;98858.66;3580384;40;11124;-53
2021/05/12 00:57:35;;;;;;;;;21.75;16.25;;;;;11.79;82.43;98849.97;3583206;40;10747;-53
2021/05/12 01:00:11;;;;;;;;;26.25;20.50;;;;;11.83;82.41;98848.75;3576908;40;14077;-55
2021/05/12 01:02:39;;;;;;;;;21.50;19.00;;;;;12.29;81.23;98845.03;3581941;40;14048;-56
2021/05/12 01:05:11;;;;;;;;;21.25;20.25;;;;;12.04;81.95;98840.81;3581431;40;14059;-52
2021/05/12 01:07:39;;;;;;;;;20.50;20.50;;;;;11.80;82.93;98843.63;3580532;40;14245;-54
2021/05/12 01:10:07;;;;;;;;;33.00;25.00;;;;;11.71;84.21;98839.81;3582661;40;11253;-55
2021/05/12 01:12:34;;;;;;;;;26.00;24.50;;;;;11.71;83.76;98837.13;3582150;40;10795;-53
2021/05/12 01:15:02;;;;;;;;;26.25;20.25;;;;;11.47;84.01;98837.25;3584750;40;10785;-55
2021/05/12 01:17:30;;;;;;;;;25.00;21.50;;;;;11.52;84.46;98835.06;3580966;40;14030;-50
2021/05/12 01:19:57;;;;;;;;;32.33;25.00;;;;;11.54;84.46;98827.72;3582381;40;10471;-53
2021/05/12 01:22:24;;;;;;;;;29.67;24.67;;;;;11.86;82.13;98832.41;3581421;40;10714;-54
2021/05/12 01:24:52;;;;;;;;;34.33;27.33;;;;;11.85;82.01;98830.66;3586153;40;9910;-55
2021/05/12 01:27:19;;;;;;;;;38.67;36.00;;;;;11.71;83.12;98836.28;3581955;40;9814;-54
2021/05/12 01:29:47;;;;;;;;;40.00;35.67;;;;;11.80;81.89;98824.81;3578760;40;10169;-54
2021/05/12 01:32:14;;;;;;;;;37.33;29.00;;;;;11.80;82.32;98825.66;3584921;40;10318;-55
2021/05/12 01:34:41;;;;;;;;;27.00;22.50;;;;;12.22;81.40;98822.31;3581587;40;10949;-54
2021/05/12 01:37:10;;;;;;;;;22.75;20.00;;;;;12.21;81.71;98825.97;3589697;40;10868;-54
2021/05/12 01:39:41;;;;;;;;;25.75;22.50;;;;;11.93;82.36;98817.47;3583125;40;10953;-54
2021/05/12 01:42:08;;;;;;;;;24.00;18.25;;;;;11.95;81.51;98807.44;3581188;40;14050;-54
2021/05/12 01:44:35;;;;;;;;;22.50;19.00;;;;;11.95;82.61;98815.50;3581379;40;14044;-53
2021/05/12 01:47:03;;;;;;;;;21.25;19.00;;;;;11.75;83.39;98817.09;3581584;40;14025;-54
2021/05/12 01:49:31;;;;;;;;;24.50;20.00;;;;;11.96;82.30;98811.84;3579051;40;14151;-54
2021/05/12 01:51:59;;;;;;;;;22.50;21.00;;;;;11.32;85.30;98814.25;3582364;40;14171;-51
2021/05/12 01:54:26;;;;;;;;;25.00;23.25;;;;;11.41;85.65;98810.88;3582312;40;14086;-54
2021/05/12 01:56:54;;;;;;;;;30.00;26.67;;;;;11.36;84.77;98807.69;3583965;40;10666;-54
2021/05/12 01:59:22;;;;;;;;;27.00;24.00;;;;;11.43;85.09;98807.09;3581867;40;10332;-54
2021/05/12 02:01:49;;;;;;;;;24.67;22.00;;;;;11.15;85.75;98811.06;3579728;40;10913;-52
2021/05/12 02:04:16;;;;;;;;;29.00;21.67;;;;;11.37;85.11;98801.31;3584188;40;10501;-55
2021/05/12 02:06:44;;;;;;;;;22.00;19.00;;;;;11.48;83.96;98801.34;3583248;40;10554;-55
2021/05/12 02:09:11;;;;;;;;;24.00;21.33;;;;;11.53;85.02;98799.16;3584105;40;10710;-55
2021/05/12 02:11:39;;;;;;;;;27.33;24.00;;;;;11.62;84.14;98795.72;3585968;39;10822;-54
2021/05/12 02:14:07;;;;;;;;;30.33;24.67;;;;;11.37;86.14;98793.25;3582710;40;10340;-51
2021/05/12 02:16:36;;;;;;;;;20.00;19.00;;;;;11.59;83.71;98787.91;3588768;40;10766;-54
2021/05/12 02:19:05;;;;;;;;;29.33;22.67;;;;;11.52;84.95;98786.66;3582493;40;10429;-51
2021/05/12 02:21:33;;;;;;;;;30.00;26.33;;;;;11.06;85.59;98779.56;3583881;40;10131;-50
2021/05/12 02:24:00;;;;;;;;;34.00;29.33;;;;;11.61;84.44;98777.88;3586176;40;10207;-55
2021/05/12 02:26:28;;;;;;;;;47.00;36.00;;;;;11.61;83.95;98779.69;3580124;40;9880;-53
2021/05/12 02:28:57;;;;;;;;;39.00;34.33;;;;;11.41;85.79;98776.78;3583070;40;10187;-54
2021/05/12 02:31:24;;;;;;;;;54.33;42.00;;;;;11.58;85.09;98780.78;3583422;40;10013;-53
2021/05/12 02:33:52;;;;;;;;;49.67;41.00;;;;;11.69;84.13;98777.28;3582356;40;10689;-53
2021/05/12 02:36:19;;;;;;;;;192.00;178.80;;;;;11.71;84.86;98771.75;3581076;40;10523;-55
2021/05/12 02:38:46;;;;;;;;;52.67;43.67;;;;;11.62;84.30;98771.50;3579135;40;10191;-53
2021/05/12 02:41:13;;;;;;;;;39.33;35.33;;;;;11.42;84.74;98769.56;3581747;40;9990;-53
2021/05/12 02:43:41;;;;;;;;;30.00;26.00;;;;;11.10;85.80;98766.75;3581687;40;9890;-53
2021/05/12 02:46:08;;;;;;;;;46.00;40.33;;;;;11.08;85.44;98766.00;3580747;40;9906;-52
2021/05/12 02:48:35;;;;;;;;;39.00;31.67;;;;;11.09;85.62;98768.59;3587120;40;10038;-54
2021/05/12 02:51:03;;;;;;;;;41.67;35.33;;;;;10.84;86.70;98766.09;3587010;40;10038;-56
2021/05/12 02:53:30;;;;;;;;;33.67;31.00;;;;;11.43;85.87;98757.84;3586634;40;9861;-53
2021/05/12 02:55:58;;;;;;;;;30.67;25.00;;;;;10.77;87.69;98757.66;3587273;40;10894;-52
2021/05/12 02:58:25;;;;;;;;;24.00;21.67;;;;;11.14;85.77;98761.00;3579002;40;10073;-54
2021/05/12 03:00:52;;;;;;;;;25.00;23.33;;;;;10.63;86.42;98766.75;3576900;40;10060;-55
2021/05/12 03:03:19;;;;;;;;;26.67;24.00;;;;;10.33;88.33;98767.28;3576867;40;10145;-55
2021/05/12 03:05:47;;;;;;;;;28.33;24.00;;;;;10.58;87.68;98762.72;3553080;40;958764;-53
2021/05/12 03:08:15;;;;;;;;;30.33;23.00;;;;;10.87;87.10;98766.69;3580473;40;10347;-55
2021/05/12 03:10:43;;;;;;;;;27.00;21.67;;;;;10.39;88.29;98764.13;3587123;40;10041;-54
2021/05/12 03:13:10;;;;;;;;;25.00;21.67;;;;;10.30;88.26;98773.72;3587402;40;9804;-53
2021/05/12 03:15:38;;;;;;;;;21.00;20.00;;;;;10.10;88.57;98768.97;3586504;40;9891;-53
2021/05/12 03:18:07;;;;;;;;;26.33;23.67;;;;;10.24;87.42;98776.84;3587087;40;9897;-54
2021/05/12 03:20:36;;;;;;;;;20.67;18.67;;;;;10.43;86.92;98770.13;3583528;40;10349;-55
2021/05/12 03:23:04;;;;;;;;;25.00;23.00;;;;;10.48;86.45;98782.22;3586237;40;9789;-54
2021/05/12 03:25:32;;;;;;;;;25.33;24.33;;;;;10.41;86.07;98780.97;3585704;40;9916;-54
2021/05/12 03:28:00;;;;;;;;;27.00;21.00;;;;;10.73;86.37;98783.88;3577699;40;9988;-55
2021/05/12 03:30:32;;;;;;;;;28.33;25.00;;;;;10.94;84.98;98776.00;3587225;40;10163;-52
2021/05/12 03:33:02;;;;;;;;;26.00;24.00;;;;;11.05;85.52;98783.22;3587341;40;9988;-54
2021/05/12 03:35:29;;;;;;;;;23.67;22.00;;;;;10.92;85.51;98785.16;3586478;40;10002;-54
2021/05/12 03:37:57;;;;;;;;;28.00;24.33;;;;;10.91;85.40;98783.44;3586716;40;10458;-52
2021/05/12 03:40:27;;;;;;;;;23.33;22.33;;;;;11.29;84.22;98796.56;3587537;40;10765;-52
2021/05/12 03:42:56;;;;;;;;;23.67;19.33;;;;;11.04;86.91;98781.50;3587206;40;10499;-53
2021/05/12 03:45:24;;;;;;;;;29.33;23.00;;;;;11.24;85.44;98792.53;3587011;40;10320;-52
2021/05/12 03:47:52;;;;;;;;;21.00;21.00;;;;;11.47;84.17;98791.56;3587609;40;10897;-55
2021/05/12 03:50:23;;;;;;;;;23.00;20.00;;;;;11.37;84.93;98791.44;3594399;40;10846;-51
2021/05/12 03:52:51;;;;;;;;;27.00;21.67;;;;;11.83;82.38;98800.34;3587220;40;10431;-55
2021/05/12 03:55:22;;;;;;;;;25.00;21.33;;;;;11.41;83.40;98795.59;3587149;40;10471;-52
2021/05/12 03:57:50;;;;;;;;;26.50;22.25;;;;;11.64;84.68;98809.03;3587167;40;10891;-52
2021/05/12 04:00:18;;;;;;;;;30.00;25.33;;;;;11.58;83.59;98804.97;3586950;40;10306;-52
2021/05/12 04:02:45;;;;;;;;;29.00;22.00;;;;;11.28;83.92;98810.13;3581010;40;11029;-54
2021/05/12 04:05:15;;;;;;;;;22.25;21.50;;;;;11.77;81.65;98808.88;3577894;40;10807;-54
2021/05/12 04:07:47;;;;;;;;;22.25;20.25;;;;;15.59;66.77;98813.84;3578214;40;14838;-54
2021/05/12 04:10:16;;;;;;;;;25.25;22.75;;;;;15.50;65.15;98798.47;3586709;40;14035;-56
2021/05/12 04:12:44;;;;;;;;;16.75;16.25;;;;;17.53;59.88;98799.88;3586691;40;14139;-58
2021/05/12 04:15:11;;;;;;;;;18.50;15.50;;;;;17.80;58.02;98793.44;3587349;40;14064;-55
2021/05/12 04:17:39;;;;;;;;;19.00;18.00;;;;;18.45;55.86;98800.94;3586629;40;14049;-55
2021/05/12 04:20:12;;;;;;;;;20.50;16.75;;;;;18.75;54.75;98796.81;3586563;40;14088;-54
2021/05/12 04:22:40;;;;;;;;;18.25;18.00;;;;;18.74;54.45;98786.03;3576539;40;14052;-58
2021/05/12 04:25:18;;;;;;;;;17.75;16.00;;;;;16.10;63.36;98794.53;3576614;40;13992;-57
2021/05/12 04:27:47;;;;;;;;;18.25;16.00;;;;;13.46;72.89;98781.28;3576989;40;14176;-55
2021/05/12 04:30:18;;;;;;;;;21.00;17.25;;;;;13.43;73.38;98787.81;3576533;40;14083;-53
2021/05/12 04:32:46;;;;;;;;;20.75;18.25;;;;;13.52;73.42;98786.97;3577143;40;14263;-54
2021/05/12 04:35:18;;;;;;;;;26.00;20.25;;;;;13.43;74.40;98789.63;3576956;40;14060;-54
2021/05/12 04:37:49;;;;;;;;;24.75;21.50;;;;;13.58;74.82;98777.50;3578724;40;14038;-55
2021/05/12 04:40:18;;;;;;;;;23.25;21.00;;;;;13.72;75.42;98787.94;3577470;40;14080;-54
2021/05/12 04:42:45;;;;;;;;;24.75;20.50;;;;;13.84;76.10;98781.41;3575687;40;14114;-55
2021/05/12 04:45:15;;;;;;;;;17.50;16.25;;;;;14.28;73.09;98779.25;3576441;40;14051;-54
2021/05/12 04:47:54;;;;;;;;;22.00;22.00;;;;;14.32;72.45;98781.66;3583832;40;14584;-56
2021/05/12 04:50:29;;;;;;;;;21.00;18.25;;;;;14.57;71.27;98783.00;3576536;40;14080;-53
2021/05/12 04:52:57;;;;;;;;;22.00;20.00;;;;;15.10;71.25;98780.66;3580379;40;14030;-55
2021/05/12 04:55:25;;;;;;;;;22.25;19.25;;;;;15.86;68.53;98782.41;3586779;40;14070;-53
2021/05/12 04:57:52;;;;;;;;;22.25;20.75;;;;;17.66;62.04;98775.84;3586883;40;14759;-55
2021/05/12 05:00:24;;;;;;;;;22.75;19.50;;;;;19.22;56.42;98776.19;3586318;40;14049;-55
2021/05/12 05:02:52;;;;;;;;;22.75;18.75;;;;;17.41;61.22;98776.75;3586999;40;14084;-53
2021/05/12 05:05:21;;;;;;;;;19.00;17.25;;;;;15.84;67.51;98768.16;3586280;40;14120;-54
2021/05/12 05:07:48;;;;;;;;;19.25;16.25;;;;;15.50;68.64;98768.72;3584794;40;14001;-56
2021/05/12 05:10:16;;;;;;;;;22.00;18.00;;;;;15.71;66.65;98767.66;3576588;40;14242;-54
2021/05/12 05:12:43;;;;;;;;;17.00;16.00;;;;;16.54;64.86;98773.00;3576434;40;14084;-56
2021/05/12 05:15:11;;;;;;;;;20.00;18.25;;;;;17.04;62.70;98769.72;3576593;40;14797;-54
2021/05/12 05:17:39;;;;;;;;;16.75;16.75;;;;;16.40;64.53;98777.06;3576223;40;14063;-56
2021/05/12 05:20:11;;;;;;;;;20.25;15.50;;;;;17.10;61.82;98766.38;3576873;40;14587;-56
2021/05/12 05:22:39;;;;;;;;;17.25;14.75;;;;;16.95;63.68;98762.53;3579956;40;14621;-57
2021/05/12 05:25:07;;;;;;;;;21.50;19.00;;;;;16.98;62.64;98757.66;3586603;40;14004;-54
2021/05/12 05:27:34;;;;;;;;;13.75;13.50;;;;;16.93;62.49;98756.41;3576829;40;14726;-55
2021/05/12 05:30:03;;;;;;;;;20.50;16.50;;;;;16.90;63.54;98754.84;3576385;40;14038;-55
2021/05/12 05:32:30;;;;;;;;;18.50;14.50;;;;;17.61;60.98;98756.47;3576714;40;14084;-56
2021/05/12 05:34:58;;;;;;;;;21.00;16.50;;;;;17.69;60.11;98755.66;3576259;40;14825;-55
2021/05/12 05:37:25;;;;;;;;;11.50;11.25;;;;;17.44;58.54;98758.28;3577057;40;14218;-55
2021/05/12 05:39:55;;;;;;;;;23.00;20.75;;;;;17.29;58.58;98755.28;3586449;40;14154;-55
2021/05/12 05:42:22;;;;;;;;;16.75;16.25;;;;;17.47;57.13;98743.53;3585800;40;14242;-56
2021/05/12 05:44:50;;;;;;;;;21.75;19.25;;;;;17.44;56.90;98735.72;3586225;40;14140;-54
2021/05/12 05:47:17;;;;;;;;;464.00;336.50;;;;;17.60;56.35;98748.53;3586219;40;14185;-55
2021/05/12 05:49:46;;;;;;;;;19.00;16.25;;;;;17.56;55.85;98750.69;3586279;40;10351;-56
2021/05/12 05:52:14;;;;;;;;;24.75;20.50;;;;;17.95;56.21;98756.47;3581065;40;14245;-54
2021/05/12 05:54:41;;;;;;;;;20.50;17.00;;;;;17.89;55.93;98753.59;3576479;40;14081;-55
2021/05/12 05:57:14;;;;;;;;;23.75;19.25;;;;;18.08;55.00;98747.03;3580146;40;14253;-55
2021/05/12 05:59:42;;;;;;;;;25.50;22.50;;;;;18.12;55.44;98751.97;3587393;40;14152;-54
2021/05/12 06:02:10;;;;;;;;;11.50;10.25;;;;;18.20;54.23;98746.56;3582633;40;14226;-56
2021/05/12 06:04:37;;;;;;;;;11.50;9.50;;;;;18.15;54.25;98748.91;3586887;40;13941;-57
2021/05/12 06:07:05;;;;;;;;;9.00;9.00;;;;;18.26;54.92;98752.34;3584724;40;13953;-57
2021/05/12 06:09:32;;;;;;;;;31.75;25.00;;;;;18.38;53.87;98751.03;3577811;40;13936;-56
2021/05/12 06:11:59;;;;;;;;;12.25;11.00;;;;;18.54;54.20;98739.31;3576767;40;14283;-54
2021/05/12 06:14:27;;;;;;;;;32.75;21.25;;;;;19.07;53.49;98733.38;3577112;40;14120;-57
2021/05/12 06:16:54;;;;;;;;;11.25;8.00;;;;;19.01;52.18;98730.47;3577435;40;14053;-59
2021/05/12 06:19:22;;;;;;;;;13.75;11.00;;;;;19.32;52.51;98735.19;3579772;40;13873;-55
2021/05/12 06:21:49;;;;;;;;;50.75;36.25;;;;;19.01;50.53;98739.50;3586877;40;14085;-52
2021/05/12 06:24:17;;;;;;;;;29.25;21.25;;;;;19.31;50.34;98742.50;3586435;40;14095;-56
2021/05/12 06:26:47;;;;;;;;;10.75;9.50;;;;;19.23;49.30;98734.38;3580561;40;14036;-55
2021/05/12 06:29:14;;;;;;;;;28.00;26.25;;;;;20.04;49.11;98733.25;3584557;40;14792;-54
2021/05/12 06:31:42;;;;;;;;;20.75;15.75;;;;;20.20;47.88;98731.47;3586737;40;14055;-51
2021/05/12 06:34:09;;;;;;;;;21.75;18.25;;;;;20.29;47.66;98741.28;3586260;40;14685;-54
2021/05/12 06:36:37;;;;;;;;;8.25;7.50;;;;;20.28;47.64;98740.44;3586429;40;14024;-56
2021/05/12 06:39:06;;;;;;;;;7.00;7.00;;;;;20.59;47.73;98751.34;3586343;40;13201;-53
2021/05/12 06:41:34;;;;;;;;;8.50;7.50;;;;;21.03;46.40;98755.22;3577351;40;12875;-56
2021/05/12 06:44:02;;;;;;;;;9.50;8.00;;;;;20.65;46.45;98749.75;3577558;40;12748;-55
2021/05/12 06:46:30;;;;;;;;;8.00;6.50;;;;;21.19;46.16;98756.97;3576284;40;12767;-56
2021/05/12 06:48:57;;;;;;;;;6.50;6.00;;;;;21.43;45.71;98764.09;3584215;40;12157;-57
2021/05/12 06:51:25;;;;;;;;;6.50;6.00;;;;;21.85;44.85;98763.47;3577108;40;12203;-57
2021/05/12 06:53:52;;;;;;;;;5.00;5.00;;;;;21.88;43.90;98770.41;3577347;40;12052;-57
2021/05/12 06:56:20;;;;;;;;;6.00;6.00;;;;;21.25;44.50;98769.88;3580885;40;11869;-57
2021/05/12 06:58:47;;;;;;;;;12.00;9.50;;;;;21.79;44.89;98757.88;3586062;40;11567;-56
2021/05/12 07:01:14;;;;;;;;;15.50;9.00;;;;;21.89;43.63;98763.91;3586275;40;11847;-55
2021/05/12 07:03:41;;;;;;;;;9.50;7.25;;;;;21.98;44.55;98759.19;3586189;40;11589;-56
2021/05/12 07:06:09;;;;;;;;;9.00;7.00;;;;;22.07;42.92;98760.78;3586633;40;11737;-55
2021/05/12 07:08:37;;;;;;;;;5.25;5.00;;;;;22.34;42.77;98759.25;3584797;40;11921;-56
2021/05/12 07:11:06;;;;;;;;;6.25;5.50;;;;;22.68;42.41;98749.50;3576222;40;11535;-57
2021/05/12 07:13:34;;;;;;;;;8.50;6.50;;;;;21.62;42.86;98754.50;3576807;40;11561;-57
2021/05/12 07:16:02;;;;;;;;;9.50;6.00;;;;;21.93;43.25;98751.53;3576825;40;11433;-57
2021/05/12 07:18:29;;;;;;;;;6.50;6.00;;;;;22.22;42.42;98756.19;3586269;40;11513;-58
2021/05/12 07:20:57;;;;;;;;;6.25;6.25;;;;;22.86;41.13;98762.75;3586239;40;11452;-57
2021/05/12 07:23:27;;;;;;;;;12.75;12.50;;;;;22.57;42.18;98754.44;3586508;40;11294;-56
2021/05/12 07:25:56;;;;;;;;;6.00;6.00;;;;;22.96;41.68;98753.19;3583739;40;11699;-56
2021/05/12 07:28:25;;;;;;;;;4.75;4.75;;;;;22.67;40.64;98747.78;3577807;40;11138;-57
2021/05/12 07:30:52;;;;;;;;;5.75;5.75;;;;;22.50;40.97;98753.53;3577041;40;10767;-57
2021/05/12 07:33:39;;;;;;;;;6.00;6.00;;;;;22.90;40.89;98759.38;3577035;40;11152;-57
2021/05/12 07:36:07;;;;;;;;;5.75;5.75;;;;;23.49;40.52;98757.38;3576697;40;11339;-57
2021/05/12 07:38:35;;;;;;;;;7.00;5.50;;;;;22.96;40.59;98755.00;3577208;40;11283;-56
2021/05/12 07:41:03;;;;;;;;;4.50;4.50;;;;;23.36;40.26;98748.00;3576873;40;10812;-57
2021/05/12 07:43:31;;;;;;;;;8.00;5.00;;;;;22.95;40.52;98751.44;3584292;40;10940;-55
2021/05/12 07:46:00;;;;;;;;;7.75;6.00;;;;;23.51;40.56;98755.25;3586246;40;10878;-57
2021/05/12 07:48:29;;;;;;;;;4.50;4.50;;;;;22.95;39.88;98740.47;3585879;40;11190;-57
2021/05/12 07:50:57;;;;;;;;;9.00;5.75;;;;;22.63;40.44;98738.31;3584218;40;10705;-56
2021/05/12 07:53:25;;;;;;;;;5.00;5.00;;;;;22.30;40.55;98736.91;3584164;40;10687;-57
2021/05/12 07:55:52;;;;;;;;;5.25;5.25;;;;;23.17;39.08;98733.13;3587137;40;10863;-58
2021/05/12 07:58:19;;;;;;;;;4.50;4.50;;;;;23.15;39.23;98731.63;3582299;40;10606;-53
2021/05/12 08:00:47;;;;;;;;;6.75;6.75;;;;;23.62;39.32;98730.91;3587183;40;10593;-56
2021/05/12 08:03:15;;;;;;;;;5.00;5.00;;;;;23.61;39.17;98728.34;3586921;40;10561;-57
2021/05/12 08:05:42;;;;;;;;;7.50;7.00;;;;;24.56;39.34;98731.31;3586589;40;10765;-57
2021/05/12 08:08:09;;;;;;;;;5.00;5.00;;;;;23.98;38.78;98729.00;3587051;40;10500;-58
2021/05/12 08:10:37;;;;;;;;;10.67;7.33;;;;;24.32;39.34;98731.63;3587043;40;9941;-59
2021/05/12 08:13:05;;;;;;;;;6.67;4.67;;;;;24.19;38.68;98725.28;3587096;40;10486;-58
2021/05/12 08:15:32;;;;;;;;;5.33;5.33;;;;;24.30;39.01;98728.28;3587511;40;10326;-57
2021/05/12 08:17:59;;;;;;;;;6.67;2.67;;;;;24.45;38.44;98730.03;3587682;40;10099;-57
2021/05/12 08:20:27;;;;;;;;;5.00;5.00;;;;;23.97;38.89;98728.16;3586746;40;10164;-57
2021/05/12 08:22:54;;;;;;;;;7.00;6.00;;;;;24.16;38.90;98732.00;3594363;39;10214;-58
2021/05/12 08:25:22;;;;;;;;;5.67;5.67;;;;;23.99;38.76;98727.97;3586975;40;10103;-58
2021/05/12 08:27:53;;;;;;;;;6.00;5.00;;;;;24.97;38.17;98717.44;3586991;40;10105;-57
2021/05/12 08:30:24;;;;;;;;;6.33;5.00;;;;;24.25;38.97;98725.31;3587149;40;9829;-57
2021/05/12 08:32:52;;;;;;;;;9.00;6.00;;;;;24.66;37.82;98726.28;3587483;40;9810;-58
2021/05/12 08:35:20;;;;;;;;;22.50;21.25;;;;;24.71;38.19;98735.56;3586043;40;10360;-57
2021/05/12 08:37:51;;;;;;;;;7.25;7.25;;;;;25.02;37.61;98731.38;3586042;40;11157;-58
2021/05/12 08:40:21;;;;;;;;;9.33;6.33;;;;;24.55;38.28;98727.72;3586894;40;9812;-58
2021/05/12 08:42:51;;;;;;;;;7.67;6.00;;;;;24.93;37.36;98727.13;3586795;40;9778;-58
2021/05/12 08:45:19;;;;;;;;;5.33;3.33;;;;;24.04;38.34;98722.69;3593130;40;9768;-58
2021/05/12 08:47:54;;;;;;;;;7.00;6.00;;;;;24.87;38.26;98723.34;3593942;40;9793;-57
2021/05/12 08:50:23;;;;;;;;;5.50;5.00;;;;;24.43;37.33;98719.22;3586757;40;10179;-58
2021/05/12 08:52:52;;;;;;;;;6.00;6.00;;;;;24.28;37.58;98724.91;3594281;40;9762;-59
2021/05/12 08:55:23;;;;;;;;;6.00;6.00;;;;;23.65;39.74;98719.53;3594268;40;10313;-58
2021/05/12 08:57:50;;;;;;;;;7.00;6.33;;;;;24.70;38.99;98719.31;3587251;40;10093;-58
2021/05/12 09:00:19;;;;;;;;;8.67;7.00;;;;;25.22;38.18;98714.06;3594007;40;10246;-58
2021/05/12 09:02:47;;;;;;;;;33.00;20.75;;;;;25.31;37.55;98713.63;3586417;40;10417;-57
2021/05/12 09:05:15;;;;;;;;;11.00;8.00;;;;;25.04;38.42;98707.28;3582749;40;11073;-58
2021/05/12 09:07:42;;;;;;;;;9.67;9.67;;;;;25.45;36.81;98710.88;3578952;40;9913;-58
2021/05/12 09:10:11;;;;;;;;;7.00;6.00;;;;;24.77;37.67;98703.69;3583872;40;10578;-58
2021/05/12 09:12:59;;;;;;;;;15.33;10.33;;;;;25.63;35.69;98700.88;3585466;40;10291;-58
2021/05/12 09:15:29;;;;;;;;;27.75;23.00;;;;;25.13;37.49;98705.16;3581030;40;10338;-58
2021/05/12 09:18:02;;;;;;;;;8.00;8.00;;;;;25.32;37.54;98695.25;3579413;40;10898;-59
2021/05/12 09:20:39;;;;;;;;;7.00;7.00;;;;;24.04;37.36;98682.41;3582018;40;10151;-58
2021/05/12 09:23:14;;;;;;;;;13.33;9.00;;;;;25.95;37.59;98681.75;3586296;40;9798;-58
2021/05/12 09:26:00;;;;;;;;;12.33;12.33;;;;;25.47;36.33;98693.09;3585543;40;9826;-58
2021/05/12 09:28:30;;;;;;;;;11.33;10.33;;;;;25.97;35.63;98684.28;3586906;40;9918;-58
2021/05/12 09:31:11;;;;;;;;;7.00;7.00;;;;;24.89;37.93;98685.53;3586941;40;10104;-58
2021/05/12 09:33:47;;;;;;;;;10.00;7.00;;;;;24.89;37.54;98676.44;3585236;40;10026;-57
2021/05/12 09:36:29;;;;;;;;;9.00;8.00;;;;;25.36;36.93;98678.13;3586929;40;9948;-58
2021/05/12 09:38:57;;;;;;;;;11.00;9.67;;;;;25.56;36.51;98669.78;3587924;40;9997;-58
2021/05/12 09:41:36;;;;;;;;;10.00;9.00;;;;;25.47;36.12;98673.84;3578295;40;10073;-57
2021/05/12 09:44:06;;;;;;;;;12.00;8.67;;;;;25.31;37.36;98655.09;3585698;40;10498;-59
2021/05/12 09:46:42;;;;;;;;;16.25;13.75;;;;;25.42;37.13;98670.91;3582492;40;10326;-58
2021/05/12 09:49:14;;;;;;;;;8.67;6.67;;;;;25.99;36.90;98661.00;3587885;40;10474;-57
2021/05/12 09:51:46;;;;;;;;;6.00;5.00;;;;;25.67;36.73;98661.94;3586851;40;10701;-58
2021/05/12 09:54:20;;;;;;;;;9.00;7.00;;;;;25.90;36.08;98667.81;3585762;40;9991;-59
2021/05/12 09:56:57;;;;;;;;;9.33;8.67;;;;;26.37;36.38;98662.88;3584124;40;9765;-58
2021/05/12 09:59:31;;;;;;;;;11.67;11.00;;;;;26.82;34.95;98662.81;3588049;40;9784;-58
2021/05/12 10:02:00;;;;;;;;;6.75;5.25;;;;;26.91;34.19;98652.38;3587651;40;9764;-57
2021/05/12 10:07:16;;;;;;;;;9.50;7.00;;;;;26.58;35.04;98653.47;3588127;40;9725;-57
2021/05/12 10:09:46;;;;;;;;;10.75;8.75;;;;;26.04;34.84;98658.44;3586091;40;10358;-57
2021/05/12 10:12:21;;;;;;;;;6.75;6.75;;;;;25.29;36.50;98651.72;3587821;40;9770;-57
2021/05/12 10:14:52;;;;;;;;;11.33;8.33;;;;;25.83;35.93;98640.31;3587958;40;10018;-57
2021/05/12 10:17:21;;;;;;;;;7.50;7.00;;;;;26.67;35.35;98651.25;3587816;40;9987;-58
2021/05/12 10:19:55;;;;;;;;;20.33;20.00;;;;;27.06;35.14;98649.25;3583101;40;9851;-58
2021/05/12 10:22:23;;;;;;;;;21.00;19.00;;;;;26.66;34.15;98638.56;3588005;40;10204;-58
2021/05/12 10:24:53;;;;;;;;;12.67;11.67;;;;;26.69;34.80;98647.22;3587919;40;10212;-58
2021/05/12 10:27:27;;;;;;;;;7.00;7.00;;;;;26.69;34.95;98643.63;3587294;40;10176;-58
2021/05/12 10:29:57;;;;;;;;;12.75;11.25;;;;;27.16;35.06;98635.78;3584994;40;9821;-58
2021/05/12 10:32:37;;;;;;;;;7.75;7.50;;;;;26.47;35.20;98640.38;3589267;40;9967;-58
2021/05/12 10:35:11;;;;;;;;;4.50;3.75;;;;;26.76;34.88;98627.91;3587818;40;9890;-57
2021/05/12 10:37:46;;;;;;;;;8.25;7.00;;;;;26.88;34.46;98631.63;3587561;40;10417;-58
2021/05/12 10:40:19;;;;;;;;;9.25;8.00;;;;;26.51;35.08;98619.59;3587229;40;9958;-58
2021/05/12 10:45:34;;;;;;;;;7.50;6.25;;;;;26.84;35.23;98621.28;3587358;40;10535;-58
2021/05/12 10:48:03;;;;;;;;;10.00;8.00;;;;;26.22;35.67;98616.41;3587781;40;9993;-58
2021/05/12 10:50:47;;;;;;;;;7.00;6.00;;;;;26.77;34.82;98618.56;3594843;40;10253;-57
2021/05/12 10:53:19;;;;;;;;;8.00;7.75;;;;;26.70;35.00;98607.63;3587597;40;9698;-58
2021/05/12 10:56:14;;;;;;;;;6.00;6.00;;;;;27.12;34.79;98610.59;3588022;40;9713;-58
2021/05/12 10:59:04;;;;;;;;;7.00;7.00;;;;;26.30;35.35;98609.78;3586474;40;9841;-57
2021/05/12 11:01:52;;;;;;;;;9.75;6.00;;;;;26.61;36.34;98597.94;3587877;40;9932;-58
2021/05/12 11:04:23;;;;;;;;;7.00;7.00;;;;;26.74;35.51;98601.66;3587331;40;9927;-57
2021/05/12 11:06:54;;;;;;;;;7.50;7.50;;;;;26.91;34.00;98598.09;3587622;40;9724;-49
2021/05/12 11:09:37;;;;;;;;;10.00;7.50;;;;;26.42;35.77;98598.91;3586961;40;10021;-49
2021/05/12 11:12:15;;;;;;;;;9.00;8.00;;;;;27.52;34.34;98601.91;3586996;40;9729;-45
2021/05/12 11:14:55;;;;;;;;;6.00;6.00;;;;;27.03;33.73;98600.09;3586862;40;9774;-49
2021/05/12 11:17:41;;;;;;;;;9.25;8.00;;;;;27.33;34.10;98600.22;3587501;40;9701;-47
2021/05/12 11:20:21;;;;;;;;;8.00;8.00;;;;;27.07;35.27;98596.66;3587757;40;9895;-52
2021/05/12 11:22:50;;;;;;;;;9.00;8.00;;;;;26.98;35.27;98589.75;3587902;40;9856;-48
2021/05/12 11:25:42;;;;;;;;;11.75;8.75;;;;;27.33;34.30;98595.56;3587662;40;9734;-49
2021/05/12 11:33:34;;;;;;;;;7.50;7.00;;;;;26.16;36.88;98599.94;3587237;40;9723;-48
2021/05/12 11:36:13;;;;;;;;;8.00;8.00;;;;;26.34;37.65;98590.94;3587829;40;9770;-46
2021/05/12 11:38:42;;;;;;;;;8.00;7.25;;;;;26.79;37.32;98591.63;3587800;40;9743;-49
2021/05/12 11:41:17;;;;;;;;;8.75;8.75;;;;;27.06;37.31;98597.72;3585081;40;10482;-48
2021/05/12 11:44:02;;;;;;;;;9.00;8.00;;;;;26.63;37.44;98586.72;3586882;40;10525;-48
2021/05/12 11:46:31;;;;;;;;;11.00;9.00;;;;;27.35;36.55;98587.88;3587478;40;9713;-51
2021/05/12 11:49:10;;;;;;;;;9.75;9.00;;;;;27.36;36.20;98574.97;3587066;40;10321;-50